Time;durP1;ratioP1;P1;durP2;ratioP2;P2;SDS_P1;SDS_P2;PMS_P1;PMS_P2;Temp;Humidity;BMP_temperature;BMP_pressure;BME280_temperature;BME280_humidity;BME280_pressure;Samples;Min_cycle;Max_cycle;Signal;HPM_P1;HPM_P2
2022/10/29 00:00:39;;;;;;;4.93;2.30;;;16.60;99.90;;;;;;5030283;28;20029;-77
2022/10/29 00:03:05;;;;;;;26.10;7.53;;;16.60;99.90;;;;;;5030750;28;20558;-77
2022/10/29 00:05:31;;;;;;;19.00;4.78;;;16.50;99.90;;;;;;5029861;28;20634;-77
2022/10/29 00:07:57;;;;;;;9.20;2.13;;;16.50;99.90;;;;;;5031181;28;20103;-77
2022/10/29 00:10:23;;;;;;;5.32;2.65;;;16.50;99.90;;;;;;5031387;28;20478;-77
2022/10/29 00:12:48;;;;;;;16.75;6.45;;;16.50;99.90;;;;;;5029392;28;20076;-77
2022/10/29 00:15:14;;;;;;;14.80;3.22;;;16.40;99.90;;;;;;5031357;28;20045;-77
2022/10/29 00:17:40;;;;;;;12.38;2.95;;;16.40;99.90;;;;;;5029949;28;20104;-77
2022/10/29 00:20:07;;;;;;;5.18;1.85;;;16.40;99.90;;;;;;5030007;28;20452;-77
2022/10/29 00:22:32;;;;;;;9.25;2.88;;;16.40;99.90;;;;;;5030375;28;20072;-77
2022/10/29 00:24:58;;;;;;;4.95;2.35;;;16.40;99.90;;;;;;5031249;28;20057;-77
2022/10/29 00:27:25;;;;;;;9.05;3.25;;;16.40;99.90;;;;;;5031206;28;20030;-77
2022/10/29 00:29:51;;;;;;;66.88;18.85;;;16.40;99.90;;;;;;5031093;28;20068;-77
2022/10/29 00:32:16;;;;;;;18.58;7.25;;;16.40;99.90;;;;;;5030299;28;20057;-77
2022/10/29 00:34:42;;;;;;;13.00;4.95;;;16.40;99.90;;;;;;5031339;28;20032;-77
2022/10/29 00:37:08;;;;;;;10.32;4.00;;;16.40;99.90;;;;;;5034706;28;20096;-75
2022/10/29 00:39:33;;;;;;;15.38;4.43;;;16.40;99.90;;;;;;5035008;28;20082;-75
2022/10/29 00:42:00;;;;;;;6.03;2.28;;;16.40;99.90;;;;;;5034621;28;20477;-75
2022/10/29 00:44:34;;;;;;;9.13;2.80;;;16.40;99.90;;;;;;5032951;28;20060;-75
2022/10/29 00:47:29;;;;;;;5.40;2.75;;;16.40;99.90;;;;;;5034984;28;20453;-76
2022/10/29 00:50:13;;;;;;;3.50;1.92;;;16.40;99.90;;;;;;5033610;28;20038;-76
2022/10/29 00:52:46;;;;;;;8.93;3.75;;;16.40;99.90;;;;;;5032642;28;20029;-76
2022/10/29 00:55:14;;;;;;;3.72;1.77;;;16.40;99.90;;;;;;5033471;28;20034;-76
2022/10/29 00:57:47;;;;;;;4.10;2.40;;;16.40;99.90;;;;;;5033552;28;20036;-77
2022/10/29 01:00:15;;;;;;;8.25;2.60;;;16.40;99.90;;;;;;5033498;28;20029;-77
2022/10/29 01:02:43;;;;;;;5.93;2.47;;;16.40;99.90;;;;;;5032325;28;20033;-76
2022/10/29 01:05:11;;;;;;;7.10;2.90;;;16.40;99.90;;;;;;5033068;28;20025;-77
2022/10/29 01:07:37;;;;;;;8.80;2.60;;;16.50;99.90;;;;;;5037463;28;20488;-77
2022/10/29 01:10:03;;;;;;;6.65;2.97;;;16.50;99.90;;;;;;5037285;28;20030;-77
2022/10/29 01:12:41;;;;;;;7.47;2.97;;;16.40;99.90;;;;;;5049296;28;20507;-77
2022/10/29 01:15:10;;;;;;;5.75;2.88;;;16.50;99.90;;;;;;5048868;28;20057;-77
2022/10/29 01:18:23;;;;;;;6.50;2.72;;;16.40;99.90;;;;;;5034054;28;20037;-77
2022/10/29 01:21:41;;;;;;;7.53;2.67;;;16.40;99.90;;;;;;4953745;29;20517;-77
2022/10/29 01:24:51;;;;;;;4.97;2.30;;;16.40;99.90;;;;;;5042011;28;20574;-77
2022/10/29 01:28:03;;;;;;;9.68;2.72;;;16.30;99.90;;;;;;5054240;28;20037;-77
2022/10/29 01:31:18;;;;;;;7.88;1.92;;;16.20;99.90;;;;;;5022637;28;20124;-77
2022/10/29 01:34:12;;;;;;;5.95;2.83;;;16.20;99.90;;;;;;5052923;28;20040;-77
2022/10/29 01:36:46;;;;;;;5.25;2.55;;;16.20;99.90;;;;;;5052648;28;20036;-77
2022/10/29 01:39:43;;;;;;;5.88;2.35;;;16.20;99.90;;;;;;5052313;28;20491;-77
2022/10/29 01:42:26;;;;;;;8.13;2.97;;;16.20;99.90;;;;;;5015715;28;20437;-77
2022/10/29 01:45:15;;;;;;;14.35;2.83;;;16.20;99.90;;;;;;5013815;28;20393;-77
2022/10/29 01:48:00;;;;;;;9.43;2.92;;;16.30;99.90;;;;;;5012409;28;20486;-77
2022/10/29 01:50:27;;;;;;;8.95;2.22;;;16.20;99.90;;;;;;5012800;28;20449;-77
2022/10/29 01:52:54;;;;;;;5.15;2.03;;;16.20;99.90;;;;;;5012031;28;20501;-76
2022/10/29 01:55:30;;;;;;;10.52;2.17;;;16.20;99.90;;;;;;5012544;28;20116;-77
2022/10/29 01:57:56;;;;;;;10.77;2.25;;;16.20;99.90;;;;;;5013711;28;20077;-77
2022/10/29 02:00:23;;;;;;;4.35;2.40;;;16.20;99.90;;;;;;5013524;28;20037;-77
2022/10/29 02:03:10;;;;;;;7.50;2.05;;;16.20;99.90;;;;;;5013043;28;20079;-77
2022/10/29 02:06:14;;;;;;;15.82;3.03;;;16.20;99.90;;;;;;5013718;28;20026;-77
2022/10/29 02:09:16;;;;;;;8.13;2.88;;;16.20;99.90;;;;;;5013869;28;20032;-76
2022/10/29 02:11:58;;;;;;;;;;;16.10;99.90;;;;;;5013215;28;20033;-77
2022/10/29 02:14:31;;;;;;;17.50;3.22;;;16.10;99.90;;;;;;4998856;28;19913;-77
2022/10/29 02:16:58;;;;;;;14.02;2.78;;;15.90;99.90;;;;;;5051721;28;20024;-77
2022/10/29 02:19:32;;;;;;;6.97;1.98;;;15.90;99.90;;;;;;5051730;28;20269;-76
2022/10/29 02:21:58;;;;;;;14.45;3.50;;;15.80;99.90;;;;;;5051871;28;20393;-76
2022/10/29 02:24:24;;;;;;;4.25;2.22;;;15.90;99.90;;;;;;5051984;28;20033;-76
2022/10/29 02:26:51;;;;;;;5.65;3.10;;;15.90;99.90;;;;;;5051498;28;20079;-76
2022/10/29 02:29:17;;;;;;;4.82;2.47;;;15.90;99.90;;;;;;5051226;28;20131;-76
2022/10/29 02:31:43;;;;;;;5.60;2.60;;;15.90;99.90;;;;;;5052949;28;20033;-76
2022/10/29 02:34:08;;;;;;;18.52;4.10;;;16.00;99.90;;;;;;5051786;28;20115;-76
2022/10/29 02:36:34;;;;;;;13.73;3.90;;;16.00;99.90;;;;;;5052819;28;20048;-76
2022/10/29 02:39:00;;;;;;;9.23;3.33;;;16.00;99.90;;;;;;5052027;28;20037;-76
2022/10/29 02:41:25;;;;;;;6.00;2.67;;;15.90;99.90;;;;;;5052355;28;20033;-76
2022/10/29 02:43:51;;;;;;;3.95;2.30;;;15.80;99.90;;;;;;5051686;28;20112;-76
2022/10/29 02:46:20;;;;;;;7.30;3.58;;;15.80;99.90;;;;;;5052594;28;20492;-76
2022/10/29 02:48:46;;;;;;;8.13;3.38;;;15.80;99.90;;;;;;5052205;28;20078;-77
2022/10/29 02:51:13;;;;;;;12.00;4.75;;;15.80;99.90;;;;;;5051058;28;20087;-77
2022/10/29 02:53:38;;;;;;;6.00;2.40;;;15.80;99.90;;;;;;5051600;28;20029;-77
2022/10/29 02:56:06;;;;;;;5.70;2.67;;;15.80;99.90;;;;;;5052555;28;20043;-77
2022/10/29 02:58:32;;;;;;;17.15;4.18;;;15.80;99.90;;;;;;5051137;28;20481;-77
2022/10/29 03:00:58;;;;;;;10.77;3.55;;;15.70;99.90;;;;;;5050498;28;20021;-76
2022/10/29 03:03:24;;;;;;;5.25;2.83;;;15.70;99.90;;;;;;5033962;28;20036;-76
2022/10/29 03:05:51;;;;;;;8.93;3.08;;;15.60;99.90;;;;;;5031473;28;20064;-76
2022/10/29 03:08:17;;;;;;;7.63;2.95;;;15.50;99.90;;;;;;5027218;28;20036;-76
2022/10/29 03:10:43;;;;;;;5.78;2.58;;;15.50;99.90;;;;;;5016349;28;20072;-76
2022/10/29 03:13:09;;;;;;;6.10;2.20;;;15.40;99.90;;;;;;5051076;28;20060;-76
2022/10/29 03:15:36;;;;;;;12.18;3.03;;;15.50;99.90;;;;;;5036158;28;20030;-76
2022/10/29 03:18:03;;;;;;;13.85;2.97;;;15.50;99.90;;;;;;5010772;28;20112;-76
2022/10/29 03:20:30;;;;;;;8.88;2.97;;;15.50;99.90;;;;;;5036327;28;20025;-76
2022/10/29 03:22:55;;;;;;;7.95;2.45;;;15.50;99.90;;;;;;5050968;28;20115;-76
2022/10/29 03:25:21;;;;;;;6.00;2.53;;;15.50;99.90;;;;;;5051360;28;20108;-76
2022/10/29 03:27:47;;;;;;;4.15;2.40;;;15.50;99.90;;;;;;5051658;28;20431;-76
2022/10/29 03:30:15;;;;;;;5.32;2.47;;;15.60;99.90;;;;;;5051435;28;20029;-76
2022/10/29 03:32:44;;;;;;;7.68;2.72;;;15.60;99.90;;;;;;5051063;28;20098;-76
2022/10/29 03:35:13;;;;;;;15.40;2.47;;;15.60;99.90;;;;;;5051061;28;20074;-76
2022/10/29 03:37:39;;;;;;;5.85;2.60;;;15.60;99.90;;;;;;5032987;28;20037;-76
2022/10/29 03:40:06;;;;;;;5.38;2.80;;;15.60;99.90;;;;;;5011500;28;20033;-76
2022/10/29 03:42:31;;;;;;;21.83;2.83;;;15.60;99.90;;;;;;5010098;28;20101;-76
2022/10/29 03:44:58;;;;;;;24.60;2.72;;;15.60;99.90;;;;;;5011408;28;20509;-76
2022/10/29 03:47:24;;;;;;;3.50;2.20;;;15.60;99.90;;;;;;5011878;28;20117;-76
2022/10/29 03:49:50;;;;;;;14.55;3.55;;;15.60;99.90;;;;;;5010139;28;20391;-76
2022/10/29 03:52:16;;;;;;;5.32;2.40;;;15.60;99.90;;;;;;5010843;28;20083;-76
2022/10/29 03:54:42;;;;;;;13.18;3.78;;;15.70;99.90;;;;;;5011522;28;20038;-76
2022/10/29 03:57:07;;;;;;;7.15;2.53;;;15.70;99.90;;;;;;5010441;28;20029;-76
2022/10/29 03:59:33;;;;;;;14.00;2.67;;;15.70;99.90;;;;;;5011404;28;20037;-76
2022/10/29 04:01:59;;;;;;;11.45;2.08;;;15.70;99.90;;;;;;5011441;28;20043;-77
2022/10/29 04:04:24;;;;;;;7.10;2.60;;;15.70;99.90;;;;;;5010490;28;20033;-76
2022/10/29 04:06:50;;;;;;;6.63;2.33;;;15.80;99.90;;;;;;5011642;28;20478;-75
2022/10/29 04:09:16;;;;;;;7.82;2.53;;;15.70;99.90;;;;;;5011029;28;20430;-75
2022/10/29 04:11:41;;;;;;;8.05;2.47;;;15.80;99.90;;;;;;5040381;28;20025;-75
2022/10/29 04:14:07;;;;;;;6.85;2.75;;;15.80;99.90;;;;;;5054362;28;20076;-75
2022/10/29 04:16:33;;;;;;;12.05;2.97;;;15.90;99.90;;;;;;5036113;28;20036;-75
2022/10/29 04:18:59;;;;;;;17.92;3.35;;;15.90;99.90;;;;;;5035101;28;20065;-75
2022/10/29 04:21:24;;;;;;;10.40;2.38;;;15.90;99.90;;;;;;5035067;28;20073;-75
2022/10/29 04:23:50;;;;;;;2.58;1.83;;;15.90;99.90;;;;;;5034149;28;20041;-76
2022/10/29 04:26:17;;;;;;;8.65;2.75;;;15.90;99.90;;;;;;5034781;28;20029;-75
2022/10/29 04:28:43;;;;;;;6.05;2.88;;;15.90;99.90;;;;;;5035037;28;20557;-75
2022/10/29 04:31:11;;;;;;;8.63;2.25;;;15.90;99.90;;;;;;5034844;28;20116;-76
2022/10/29 04:33:37;;;;;;;4.75;2.00;;;15.90;99.90;;;;;;5032855;28;20032;-75
2022/10/29 04:36:03;;;;;;;7.20;3.00;;;15.90;99.90;;;;;;5034743;28;20108;-75
2022/10/29 04:38:29;;;;;;;7.97;2.15;;;16.00;99.90;;;;;;5034586;28;20022;-75
2022/10/29 04:40:59;;;;;;;6.38;2.40;;;15.90;99.90;;;;;;5016814;28;20128;-75
2022/10/29 04:43:28;;;;;;;5.43;3.35;;;15.90;99.90;;;;;;5033928;28;20034;-75
2022/10/29 04:45:57;;;;;;;11.05;4.40;;;15.80;99.90;;;;;;5034614;28;20080;-75
2022/10/29 04:48:25;;;;;;;6.85;2.65;;;15.70;99.90;;;;;;5033068;28;20541;-76
2022/10/29 04:50:51;;;;;;;4.68;2.38;;;15.70;99.90;;;;;;5034605;28;20120;-76
2022/10/29 04:53:17;;;;;;;4.60;2.45;;;15.70;99.90;;;;;;5033721;28;20108;-76
2022/10/29 04:55:44;;;;;;;4.72;1.88;;;15.70;99.90;;;;;;5034272;28;20656;-76
2022/10/29 04:58:18;;;;;;;7.07;2.35;;;15.80;99.90;;;;;;5033114;28;20768;-75
2022/10/29 05:00:45;;;;;;;5.20;2.50;;;15.90;99.90;;;;;;5033039;28;20099;-75
2022/10/29 05:03:11;;;;;;;5.63;2.45;;;15.90;99.90;;;;;;5033600;28;20029;-75
2022/10/29 05:05:38;;;;;;;7.65;2.67;;;15.90;99.90;;;;;;5033737;28;20026;-74
2022/10/29 05:08:05;;;;;;;6.38;3.05;;;15.90;99.90;;;;;;5033160;28;20025;-75
2022/10/29 05:10:36;;;;;;;5.10;1.83;;;15.90;99.90;;;;;;5037302;28;20029;-75
2022/10/29 05:13:06;;;;;;;5.78;3.25;;;15.90;99.90;;;;;;5052171;28;20036;-75
2022/10/29 05:15:33;;;;;;;4.30;2.13;;;15.90;99.90;;;;;;5043241;28;20021;-75
2022/10/29 05:17:59;;;;;;;4.38;2.20;;;15.90;99.90;;;;;;5032789;28;20414;-76
2022/10/29 05:20:25;;;;;;;4.28;2.58;;;15.90;99.90;;;;;;5034006;28;20116;-76
2022/10/29 05:23:06;;;;;;;9.68;2.70;;;16.00;99.90;;;;;;5030693;28;20026;-76
2022/10/29 05:25:36;;;;;;;5.53;1.75;;;16.00;99.90;;;;;;5032589;28;20037;-75
2022/10/29 05:28:05;;;;;;;8.07;2.25;;;16.10;99.90;;;;;;5033764;28;20171;-76
2022/10/29 05:30:32;;;;;;;6.55;2.65;;;16.10;99.90;;;;;;5033848;28;20021;-75
2022/10/29 05:32:57;;;;;;;8.13;2.20;;;16.10;99.90;;;;;;5031701;28;20025;-75
2022/10/29 05:35:24;;;;;;;6.28;3.17;;;16.10;99.90;;;;;;5032709;28;20044;-76
2022/10/29 05:37:54;;;;;;;8.45;2.22;;;16.10;99.90;;;;;;5032284;28;20371;-77
2022/10/29 05:40:21;;;;;;;7.25;2.70;;;16.10;99.90;;;;;;5032532;28;20033;-77
2022/10/29 05:42:47;;;;;;;4.97;2.47;;;16.00;99.90;;;;;;5032649;28;20128;-77
2022/10/29 05:45:13;;;;;;;5.40;2.65;;;16.00;99.90;;;;;;5032311;28;20120;-77
2022/10/29 05:47:39;;;;;;;11.20;1.90;;;16.00;99.90;;;;;;5033510;28;20108;-77
2022/10/29 05:50:05;;;;;;;10.85;3.42;;;16.00;99.90;;;;;;5033560;28;20458;-77
2022/10/29 05:52:31;;;;;;;11.27;3.25;;;16.00;99.90;;;;;;5032613;28;20032;-76
2022/10/29 05:54:56;;;;;;;4.60;2.00;;;16.00;99.90;;;;;;5033691;28;20033;-76
2022/10/29 05:57:22;;;;;;;10.45;2.65;;;16.00;99.90;;;;;;5032015;28;20029;-77
2022/10/29 05:59:48;;;;;;;10.23;2.65;;;15.90;99.90;;;;;;5033800;28;20080;-77
2022/10/29 06:02:13;;;;;;;7.05;2.30;;;15.80;99.90;;;;;;5029159;28;20044;-77
2022/10/29 06:04:39;;;;;;;9.80;2.05;;;15.80;99.90;;;;;;5032912;28;20029;-77
2022/10/29 06:07:05;;;;;;;11.60;2.70;;;15.80;99.90;;;;;;5033072;28;20492;-76
2022/10/29 06:09:31;;;;;;;15.95;3.17;;;15.80;99.90;;;;;;5033301;28;20036;-77
2022/10/29 06:11:56;;;;;;;11.10;3.55;;;15.90;99.90;;;;;;5046571;28;20052;-77
2022/10/29 06:14:22;;;;;;;6.25;3.08;;;16.00;99.90;;;;;;5052448;28;20033;-76
2022/10/29 06:16:48;;;;;;;4.20;2.65;;;16.00;99.90;;;;;;5053080;28;20505;-77
2022/10/29 06:19:14;;;;;;;6.22;2.97;;;16.00;99.90;;;;;;5053042;28;20051;-77
2022/10/29 06:21:40;;;;;;;10.60;3.92;;;16.10;99.90;;;;;;5052976;28;20068;-77
2022/10/29 06:24:06;;;;;;;11.77;3.72;;;16.10;99.90;;;;;;5051970;28;20037;-77
2022/10/29 06:26:32;;;;;;;10.15;4.90;;;16.10;99.90;;;;;;5052729;28;20024;-77
2022/10/29 06:28:59;;;;;;;8.90;3.65;;;16.10;99.90;;;;;;5052772;28;20025;-76
2022/10/29 06:31:24;;;;;;;8.38;3.83;;;16.10;99.90;;;;;;5052481;28;20029;-76
2022/10/29 06:33:50;;;;;;;9.50;3.55;;;16.10;99.90;;;;;;5051770;28;20028;-76
2022/10/29 06:36:16;;;;;;;16.58;3.78;;;16.10;99.90;;;;;;5052680;28;20123;-76
2022/10/29 06:38:42;;;;;;;14.13;3.65;;;16.10;99.90;;;;;;5052021;28;20033;-76
2022/10/29 06:41:08;;;;;;;6.53;3.50;;;16.10;99.90;;;;;;5052404;28;20048;-76
2022/10/29 06:43:34;;;;;;;16.67;3.75;;;16.10;99.90;;;;;;5051369;28;20568;-76
2022/10/29 06:46:00;;;;;;;7.90;4.32;;;16.10;99.90;;;;;;5052546;28;20107;-76
2022/10/29 06:48:26;;;;;;;7.75;3.13;;;16.10;99.90;;;;;;5052451;28;20080;-76
2022/10/29 06:50:51;;;;;;;11.77;3.17;;;16.10;99.90;;;;;;5052474;28;20112;-76
2022/10/29 06:53:18;;;;;;;20.95;3.50;;;16.20;99.90;;;;;;5051432;28;20021;-76
2022/10/29 06:55:43;;;;;;;10.80;3.92;;;16.20;99.90;;;;;;5050899;28;20021;-76
2022/10/29 06:58:15;;;;;;;12.38;4.05;;;16.10;99.90;;;;;;5041006;28;20052;-76
2022/10/29 07:00:42;;;;;;;9.00;3.50;;;16.20;99.90;;;;;;5012609;28;20037;-76
2022/10/29 07:03:12;;;;;;;11.00;2.88;;;16.20;99.90;;;;;;5010325;28;20038;-76
2022/10/29 07:05:38;;;;;;;7.28;2.80;;;16.20;99.90;;;;;;5011070;28;20048;-76
2022/10/29 07:08:04;;;;;;;9.10;3.90;;;16.20;99.90;;;;;;5012293;28;20101;-76
2022/10/29 07:10:31;;;;;;;9.52;3.83;;;16.30;99.90;;;;;;5017695;28;20456;-76
2022/10/29 07:12:58;;;;;;;5.07;2.67;;;16.20;99.90;;;;;;5010308;28;20022;-76
2022/10/29 07:15:24;;;;;;;8.85;4.15;;;16.20;99.90;;;;;;5010955;28;20041;-76
2022/10/29 07:17:58;;;;;;;10.13;3.40;;;16.20;99.90;;;;;;5010992;28;20029;-76
2022/10/29 07:20:25;;;;;;;12.68;2.80;;;16.30;99.90;;;;;;5010574;28;20386;-76
2022/10/29 07:22:51;;;;;;;6.28;4.00;;;16.40;99.90;;;;;;4993867;28;20152;-76
2022/10/29 07:25:17;;;;;;;11.02;4.28;;;16.40;99.90;;;;;;5011714;28;20434;-75
2022/10/29 07:27:42;;;;;;;7.50;3.85;;;16.50;99.90;;;;;;5010875;28;20026;-76
2022/10/29 07:30:08;;;;;;;6.25;3.40;;;16.50;99.90;;;;;;5012062;28;20087;-76
2022/10/29 07:32:34;;;;;;;7.50;3.35;;;16.60;99.90;;;;;;5009388;28;20025;-77
2022/10/29 07:35:00;;;;;;;8.80;4.07;;;16.60;99.90;;;;;;5011698;28;20065;-76
2022/10/29 07:37:26;;;;;;;10.70;5.22;;;16.70;99.90;;;;;;5011897;28;20049;-77
2022/10/29 07:39:52;;;;;;;7.38;3.38;;;16.80;99.90;;;;;;5011396;28;20505;-77
2022/10/29 07:42:17;;;;;;;10.77;3.58;;;16.80;99.90;;;;;;5026083;28;20110;-76
2022/10/29 07:44:43;;;;;;;12.05;3.53;;;16.80;99.90;;;;;;5031082;28;20029;-77
2022/10/29 07:47:09;;;;;;;14.18;3.75;;;16.90;99.90;;;;;;5031410;28;20496;-77
2022/10/29 07:49:34;;;;;;;5.60;2.80;;;16.90;99.90;;;;;;5031278;28;20099;-77
2022/10/29 07:52:00;;;;;;;7.53;2.72;;;17.00;99.90;;;;;;5031309;28;20034;-77
2022/10/29 07:54:26;;;;;;;12.63;3.70;;;17.00;99.90;;;;;;5030463;28;20048;-76
2022/10/29 07:56:52;;;;;;;10.52;4.32;;;17.10;99.90;;;;;;5031467;28;20104;-77
2022/10/29 07:59:18;;;;;;;15.52;3.00;;;17.20;99.90;;;;;;5029953;28;20478;-77
2022/10/29 08:01:44;;;;;;;6.53;2.80;;;17.10;99.90;;;;;;5031482;28;20029;-76
2022/10/29 08:04:10;;;;;;;18.73;3.15;;;17.20;99.90;;;;;;5030231;28;20026;-77
2022/10/29 08:06:36;;;;;;;6.22;2.47;;;17.30;99.90;;;;;;5031287;28;20029;-77
2022/10/29 08:09:02;;;;;;;10.55;2.97;;;17.40;99.90;;;;;;5029970;28;20075;-76
2022/10/29 08:11:31;;;;;;;19.50;2.95;;;17.40;99.90;;;;;;5042082;28;20021;-76
2022/10/29 08:13:57;;;;;;;5.05;2.47;;;17.50;99.90;;;;;;5048875;28;20403;-77
2022/10/29 08:16:23;;;;;;;7.75;2.80;;;17.40;99.90;;;;;;5050102;28;20025;-77
2022/10/29 08:18:49;;;;;;;10.25;3.97;;;17.60;99.90;;;;;;5049726;28;20029;-77
2022/10/29 08:21:14;;;;;;;11.95;3.90;;;17.50;99.90;;;;;;5051122;28;20033;-76
2022/10/29 08:23:40;;;;;;;11.35;2.78;;;17.40;99.90;;;;;;5048947;28;20029;-76
2022/10/29 08:26:06;;;;;;;7.47;3.03;;;17.20;99.90;;;;;;5050836;28;20029;-76
2022/10/29 08:28:32;;;;;;;14.73;3.70;;;17.30;99.90;;;;;;5050943;28;20112;-77
2022/10/29 08:30:57;;;;;;;29.08;3.65;;;17.50;99.90;;;;;;5051017;28;20024;-76
2022/10/29 08:33:23;;;;;;;13.13;2.97;;;17.40;99.90;;;;;;5050083;28;20036;-77
2022/10/29 08:35:49;;;;;;;7.65;3.25;;;17.60;99.90;;;;;;5049942;28;20489;-77
2022/10/29 08:38:15;;;;;;;7.15;2.97;;;17.70;99.90;;;;;;5049557;28;20024;-77
2022/10/29 08:41:24;;;;;;;10.48;3.25;;;17.80;99.90;;;;;;5050416;28;20033;-77
2022/10/29 08:44:17;;;;;;;3.75;2.00;;;17.90;99.90;;;;;;5050138;28;20059;-77
2022/10/29 08:46:49;;;;;;;5.55;2.33;;;17.90;99.90;;;;;;5049701;28;20500;-77
2022/10/29 08:49:50;;;;;;;6.47;3.08;;;18.00;99.90;;;;;;5050021;23;20050;-69
2022/10/29 08:52:27;;;;;;;12.43;6.45;;;17.90;99.90;;;;;;4979915;28;20392;-69
2022/10/29 08:55:10;;;;;;;8.02;3.70;;;18.00;99.90;;;;;;4970765;28;20031;-69
2022/10/29 08:57:54;;;;;;;6.90;2.35;;;18.00;99.90;;;;;;4973526;28;20394;-69
2022/10/29 09:00:24;;;;;;;7.43;2.45;;;18.00;99.90;;;;;;4988335;28;20030;-69
2022/10/29 09:02:56;;;;;;;5.75;2.90;;;18.20;99.90;;;;;;5009168;28;20045;-69
2022/10/29 09:05:31;;;;;;;8.32;2.38;;;18.20;99.90;;;;;;5009690;28;20092;-69
2022/10/29 09:08:22;;;;;;;18.45;2.92;;;18.20;99.90;;;;;;5009726;28;20064;-69
2022/10/29 09:11:10;;;;;;;4.13;2.13;;;18.20;99.90;;;;;;5004430;28;20028;-69
2022/10/29 09:13:51;;;;;;;9.20;2.60;;;18.30;99.90;;;;;;5032362;28;20544;-69
2022/10/29 09:16:36;;;;;;;12.63;3.00;;;18.50;99.90;;;;;;5033155;28;20105;-69
2022/10/29 09:19:24;;;;;;;7.72;2.67;;;18.60;99.90;;;;;;5034132;28;20392;-69
2022/10/29 09:22:50;;;;;;;6.97;2.63;;;18.60;99.90;;;;;;5034177;28;20576;-69
2022/10/29 09:26:00;;;;;;;9.30;2.90;;;18.60;99.90;;;;;;4963498;28;20042;-69
2022/10/29 09:28:58;;;;;;;6.25;2.40;;;18.80;99.90;;;;;;5032684;28;20036;-69
2022/10/29 09:31:41;;;;;;;4.20;1.73;;;18.90;99.90;;;;;;5032802;28;20033;-69
2022/10/29 09:34:27;;;;;;;5.85;2.65;;;18.90;99.90;;;;;;5031786;28;20029;-69
2022/10/29 09:36:54;;;;;;;4.60;2.72;;;19.10;99.90;;;;;;5032728;28;20059;-69
2022/10/29 09:39:39;;;;;;;12.45;3.00;;;19.40;99.90;;;;;;5032274;28;20120;-69
2022/10/29 09:42:15;;;;;;;8.50;2.08;;;19.10;99.90;;;;;;5032271;28;20473;-69
2022/10/29 09:44:57;;;;;;;7.15;2.95;;;19.40;99.90;;;;;;5033726;28;20100;-69
2022/10/29 09:47:49;;;;;;;8.18;3.85;;;19.70;99.90;;;;;;5032252;28;20033;-69
2022/10/29 09:50:17;;;;;;;13.25;3.38;;;20.10;99.90;;;;;;5032174;28;20029;-69
2022/10/29 09:52:46;;;;;;;6.20;2.53;;;21.30;99.90;;;;;;5032812;28;20026;-69
2022/10/29 09:55:39;;;;;;;13.20;3.17;;;22.00;99.90;;;;;;5032445;28;20029;-69
2022/10/29 09:58:06;;;;;;;9.02;3.30;;;21.70;99.90;;;;;;5033330;28;20034;-69
2022/10/29 10:00:33;;;;;;;7.28;2.72;;;22.10;99.90;;;;;;5032174;28;20037;-69
2022/10/29 10:03:17;;;;;;;6.70;3.17;;;21.90;99.90;;;;;;5032583;28;20044;-69
2022/10/29 10:06:00;;;;;;;14.90;3.20;;;21.90;99.90;;;;;;5031560;28;20102;-69
2022/10/29 10:08:26;;;;;;;8.77;3.35;;;21.80;99.90;;;;;;5032806;28;20067;-69
2022/10/29 10:10:58;;;;;;;7.15;2.47;;;20.90;99.90;;;;;;5026903;28;20525;-69
2022/10/29 10:13:31;;;;;;;10.60;2.70;;;20.80;99.90;;;;;;5012516;28;20057;-69
2022/10/29 10:16:00;;;;;;;5.30;2.00;;;21.40;99.90;;;;;;5012052;28;20143;-69
2022/10/29 10:18:40;;;;;;;8.88;2.20;;;21.80;99.90;;;;;;5012160;28;20037;-69
2022/10/29 10:21:31;;;;;;;14.48;2.33;;;22.60;99.90;;;;;;5012117;28;20033;-69
2022/10/29 10:23:58;;;;;;;10.43;2.90;;;22.40;99.90;;;;;;5012343;28;20096;-69
2022/10/29 10:26:41;;;;;;;5.60;2.17;;;22.60;99.90;;;;;;5012034;28;20084;-69
2022/10/29 10:29:18;;;;;;;10.85;2.22;;;24.00;99.90;;;;;;5011930;28;20022;-69
2022/10/29 10:31:47;;;;;;;12.93;2.45;;;23.70;99.90;;;;;;5013092;28;20093;-70
2022/10/29 10:34:19;;;;;;;2.58;1.70;;;24.60;99.90;;;;;;5010973;28;20034;-70
2022/10/29 10:36:56;;;;;;;8.52;1.95;;;25.30;99.90;;;;;;5011729;28;20037;-70
2022/10/29 10:39:35;;;;;;;20.52;2.53;;;24.80;99.90;;;;;;5012879;28;20053;-70
2022/10/29 10:42:23;;;;;;;8.25;2.17;;;23.40;99.90;;;;;;5011704;28;20397;-69
2022/10/29 10:45:31;;;;;;;4.65;2.05;;;23.60;99.90;;;;;;5011196;28;20050;-69
2022/10/29 10:47:57;;;;;;;4.15;2.05;;;23.80;99.90;;;;;;5012853;28;20034;-69
2022/10/29 10:50:34;;;;;;;5.50;2.08;;;22.90;99.90;;;;;;5012539;28;20613;-70
2022/10/29 10:53:16;;;;;;;7.65;2.28;;;22.50;99.90;;;;;;5011105;28;20413;-69
2022/10/29 10:55:51;;;;;;;2.97;1.63;;;22.10;99.90;;;;;;5011565;28;20385;-69
2022/10/29 10:58:41;;;;;;;12.43;2.72;;;21.70;99.90;;;;;;5011479;28;20125;-69
2022/10/29 11:01:21;;;;;;;8.33;3.07;;;21.80;99.90;;;;;;5011315;28;20179;-69
2022/10/29 11:04:15;;;;;;;16.88;6.90;;;22.40;99.90;;;;;;5012016;28;20048;-69
2022/10/29 11:06:47;;;;;;;12.27;3.55;;;22.60;99.90;;;;;;5011632;28;20026;-69
2022/10/29 11:09:27;;;;;;;8.90;2.17;;;22.00;99.90;;;;;;5011313;28;20501;-69
2022/10/29 11:12:06;;;;;;;3.60;1.58;;;22.40;99.90;;;;;;5025336;28;20033;-70
2022/10/29 11:14:53;;;;;;;5.43;2.15;;;22.00;99.90;;;;;;5030210;28;20469;-69
2022/10/29 11:17:30;;;;;;;5.40;2.70;;;21.70;99.90;;;;;;5031196;28;20052;-69
2022/10/29 11:20:24;;;;;;;4.45;1.80;;;22.10;99.90;;;;;;5031069;28;20033;-70
2022/10/29 11:23:33;;;;;;;5.40;2.08;;;22.50;99.90;;;;;;5030381;28;20500;-69
2022/10/29 11:26:17;;;;;;;5.68;2.22;;;22.70;99.90;;;;;;5030475;28;20037;-69
2022/10/29 11:28:54;;;;;;;3.58;1.85;;;22.40;99.90;;;;;;5015497;28;20032;-70
2022/10/29 11:31:43;;;;;;;4.75;1.92;;;22.50;99.90;;;;;;5030535;28;20018;-70
2022/10/29 11:34:23;;;;;;;5.40;1.70;;;22.50;99.90;;;;;;5031099;28;20039;-70
2022/10/29 11:37:26;;;;;;;5.50;2.07;;;22.90;99.90;;;;;;5030308;28;20061;-70
2022/10/29 11:40:02;;;;;;;8.98;2.10;;;22.90;99.90;;;;;;5010036;28;20417;-70
2022/10/29 11:42:28;;;;;;;9.15;2.45;;;22.80;99.90;;;;;;5029991;28;20079;-70
2022/10/29 11:44:58;;;;;;;5.57;1.98;;;22.80;99.90;;;;;;5031377;28;20036;-70
2022/10/29 11:47:53;;;;;;;6.80;1.97;;;22.80;99.90;;;;;;5030138;28;20545;-70
2022/10/29 11:51:06;;;;;;;7.25;2.72;;;22.80;99.90;;;;;;5031251;28;20291;-70
2022/10/29 11:54:31;;;;;;;8.60;2.55;;;22.60;99.90;;;;;;4995473;28;20557;-70
2022/10/29 11:57:19;;;;;;;7.82;2.00;;;22.50;99.90;;;;;;4950976;29;20035;-69
2022/10/29 12:00:19;;;;;;;10.18;2.08;;;22.50;99.90;;;;;;5026193;28;20498;-70
2022/10/29 12:03:25;;;;;;;13.23;2.70;;;22.60;99.90;;;;;;5045785;28;20421;-70
2022/10/29 12:06:28;;;;;;;3.83;2.00;;;22.70;99.90;;;;;;5030124;28;20040;-70
2022/10/29 12:09:37;;;;;;;3.92;2.17;;;22.40;99.90;;;;;;5030041;28;20525;-70
2022/10/29 12:12:28;;;;;;;19.40;6.85;;;22.30;99.90;;;;;;5015324;28;20116;-70
2022/10/29 12:15:25;;;;;;;11.98;2.42;;;22.50;99.90;;;;;;5010201;28;20048;-70
2022/10/29 12:18:45;;;;;;;12.80;2.38;;;22.40;99.90;;;;;;5010527;28;20054;-70
2022/10/29 12:21:35;;;;;;;7.70;2.20;;;22.50;99.90;;;;;;5003960;28;20520;-70
2022/10/29 12:24:32;;;;;;;5.78;2.03;;;22.70;99.90;;;;;;5009497;28;20022;-70
2022/10/29 12:27:29;;;;;;;6.43;2.15;;;22.70;99.90;;;;;;5011261;28;20026;-70
2022/10/29 12:30:05;;;;;;;6.90;1.85;;;22.70;99.90;;;;;;5011422;28;20026;-70
2022/10/29 12:32:55;;;;;;;3.55;1.63;;;22.90;99.90;;;;;;5011787;28;20374;-70
2022/10/29 12:36:19;;;;;;;12.97;1.50;;;23.10;99.90;;;;;;5014115;28;20030;-70
2022/10/29 12:38:54;;;;;;;5.78;1.50;;;23.10;99.90;;;;;;5019603;28;20060;-70
2022/10/29 12:41:25;;;;;;;11.60;2.03;;;23.00;99.90;;;;;;4997795;28;20385;-70
2022/10/29 12:44:07;;;;;;;9.85;1.75;;;23.20;99.90;;;;;;5014239;28;20392;-70
2022/10/29 12:46:47;;;;;;;4.25;1.55;;;23.20;99.90;;;;;;5014757;28;20088;-70
2022/10/29 12:50:02;;;;;;;6.18;1.85;;;23.00;99.90;;;;;;5013593;28;20026;-69
2022/10/29 12:53:01;;;;;;;4.75;1.50;;;23.00;99.90;;;;;;5013180;28;20112;-70
2022/10/29 12:55:27;;;;;;;4.07;1.38;;;23.00;99.90;;;;;;5014708;28;20037;-70
2022/10/29 12:57:53;;;;;;;10.40;1.73;;;22.90;99.90;;;;;;5014531;28;20172;-70
2022/10/29 13:00:26;;;;;;;7.28;1.60;;;22.90;99.90;;;;;;5014679;28;20113;-70
2022/10/29 13:02:55;;;;;;;5.80;2.50;;;23.20;99.90;;;;;;5013693;28;20033;-70
2022/10/29 13:05:37;;;;;;;7.68;2.83;;;23.40;99.90;;;;;;5013062;28;20073;-70
2022/10/29 13:08:02;;;;;;;4.78;1.30;;;24.20;99.90;;;;;;5014686;28;20080;-70
2022/10/29 13:10:34;;;;;;;6.03;2.25;;;24.40;99.90;;;;;;5017429;28;20034;-70
2022/10/29 13:13:15;;;;;;;6.07;1.83;;;24.70;99.90;;;;;;5033361;28;20137;-70
2022/10/29 13:15:56;;;;;;;4.53;1.60;;;25.20;99.90;;;;;;5034070;28;20029;-70
2022/10/29 13:18:44;;;;;;;5.20;1.90;;;24.90;99.90;;;;;;5032885;28;20026;-69